createdAt,value
2023-05-24T00:05:18.774Z,102342.28
2023-05-24T00:15:40.344Z,102332.84
2023-05-24T00:26:01.812Z,102330.25
2023-05-24T00:36:23.222Z,102317.34
2023-05-24T00:46:44.611Z,102306.16
2023-05-24T00:57:06.364Z,102316.47
2023-05-24T01:07:33.723Z,102315.63
2023-05-24T01:18:15.757Z,102313.03
2023-05-24T01:28:39.141Z,102308.72
2023-05-24T01:39:01.068Z,102307.84
2023-05-24T01:49:26.150Z,102300.94
2023-05-24T01:59:47.968Z,102295.75
2023-05-24T02:10:09.563Z,102300.09
2023-05-24T02:20:31.330Z,102297.50
2023-05-24T02:30:53.132Z,102295.78
2023-05-24T02:41:17.963Z,102290.59
2023-05-24T02:51:39.407Z,102287.13
2023-05-24T03:02:00.924Z,102276.78
2023-05-24T03:12:22.395Z,102271.59
2023-05-24T03:22:43.793Z,102262.09
2023-05-24T03:33:05.428Z,102261.22
2023-05-24T03:43:26.908Z,102273.28
2023-05-24T03:53:48.294Z,102264.66
2023-05-24T04:04:09.778Z,102268.09
2023-05-24T04:14:31.205Z,102274.13
2023-05-24T04:24:52.854Z,102273.28
2023-05-24T04:35:14.406Z,102262.91
2023-05-24T04:45:35.996Z,102284.44
2023-05-24T04:55:57.643Z,102295.59
2023-05-24T05:06:19.148Z,102299.88
2023-05-24T05:16:41.317Z,102306.72
2023-05-24T05:27:02.833Z,102316.16
2023-05-24T05:37:24.252Z,102309.13
2023-05-24T05:47:45.715Z,102305.56
2023-05-24T05:58:07.195Z,102301.16
2023-05-24T06:08:30.866Z,102321.75
2023-05-24T06:19:04.407Z,102313.88
2023-05-24T06:29:26.585Z,102332.72
2023-05-24T06:39:47.978Z,102317.00
2023-05-24T06:50:09.485Z,102319.44
2023-05-24T07:00:30.901Z,102325.28
2023-05-24T07:10:53.608Z,102339.00
2023-05-24T07:21:15.097Z,102350.16
2023-05-24T07:31:36.945Z,102353.47
2023-05-24T07:41:58.514Z,102356.88
2023-05-24T07:52:20.394Z,102358.44
2023-05-24T08:02:42.605Z,102368.69
2023-05-24T08:13:05.173Z,102360.75
2023-05-24T08:23:27.001Z,102364.91
2023-05-24T08:33:50.461Z,102364.69
2023-05-24T08:44:13.132Z,102381.84
2023-05-24T08:54:36.489Z,102389.59
2023-05-24T09:04:58.652Z,102400.03
2023-05-24T09:15:20.061Z,102406.06
2023-05-24T09:25:46.093Z,102403.31
2023-05-24T09:36:07.750Z,102417.88
2023-05-24T09:46:29.920Z,102417.78
2023-05-24T09:56:51.685Z,102409.72
2023-05-24T10:07:13.293Z,102418.41
2023-05-24T10:17:34.717Z,102428.31
2023-05-24T10:28:01.500Z,102429.94
2023-05-24T10:38:23.738Z,102425.91
2023-05-24T10:48:58.379Z,102416.28
2023-05-24T10:59:34.649Z,102417.66
2023-05-24T11:09:58.083Z,102411.41
2023-05-24T11:20:20.494Z,102422.03
2023-05-24T11:30:43.019Z,102421.91
2023-05-24T11:41:05.092Z,102426.16
2023-05-24T11:51:30.274Z,102415.72
2023-05-24T12:02:01.990Z,102427.00
2023-05-24T12:12:30.496Z,102420.72
2023-05-24T12:22:56.284Z,102430.94
2023-05-24T12:33:21.190Z,102436.31
2023-05-24T12:43:44.405Z,102444.22
2023-05-24T12:54:06.055Z,102442.53
2023-05-24T13:04:28.088Z,102450.50
2023-05-24T13:14:51.458Z,102457.56
2023-05-24T13:25:14.232Z,102452.16
2023-05-24T13:35:35.847Z,102449.34
2023-05-24T13:45:58.570Z,102448.53
2023-05-24T13:56:20.093Z,102457.22
2023-05-24T14:06:41.550Z,102455.53
2023-05-24T14:17:03.177Z,102459.75
2023-05-24T14:27:24.861Z,102465.25
2023-05-24T14:37:46.264Z,102469.44
2023-05-24T14:48:10.732Z,102483.09
2023-05-24T14:58:32.212Z,102481.63
2023-05-24T15:08:56.058Z,102495.97
2023-05-24T15:19:17.486Z,102489.00
2023-05-24T15:29:38.933Z,102496.84
2023-05-24T15:40:00.842Z,102490.91
2023-05-24T15:50:36.025Z,102497.06
2023-05-24T16:01:03.794Z,102496.38
2023-05-24T16:11:25.254Z,102502.50
2023-05-24T16:21:46.680Z,102500.06
2023-05-24T16:32:08.645Z,102503.59
2023-05-24T16:42:30.212Z,102486.19
2023-05-24T16:52:51.680Z,102486.19
2023-05-24T17:03:13.455Z,102484.31
2023-05-24T17:13:35.061Z,102489.53
2023-05-24T17:23:56.824Z,102492.09
2023-05-24T17:34:18.242Z,102489.47
2023-05-24T17:44:39.941Z,102486.13
2023-05-24T17:55:01.329Z,102504.44
2023-05-24T18:05:22.812Z,102507.09
2023-05-24T18:15:44.655Z,102508.88
2023-05-24T18:26:07.338Z,102510.56
2023-05-24T18:36:29.232Z,102508.16
2023-05-24T18:46:53.973Z,102508.28
2023-05-24T18:57:15.680Z,102507.72
2023-05-24T19:07:37.112Z,102516.66
2023-05-24T19:17:58.752Z,102527.31
2023-05-24T19:28:20.187Z,102540.59
2023-05-24T19:38:41.765Z,102540.69
2023-05-24T19:49:03.202Z,102544.31
2023-05-24T19:59:24.608Z,102562.69
2023-05-24T20:09:46.179Z,102575.78
2023-05-24T20:20:08.178Z,102589.72
2023-05-24T20:30:30.363Z,102587.16
2023-05-24T20:40:51.748Z,102594.19
2023-05-24T20:51:13.247Z,102600.31
2023-05-24T21:01:34.708Z,102611.72
2023-05-24T21:11:56.208Z,102611.88
2023-05-24T21:22:17.610Z,102631.00
2023-05-24T21:32:40.866Z,102636.31
2023-05-24T21:43:03.195Z,102656.19
2023-05-24T21:53:24.645Z,102647.47
2023-05-24T22:03:46.185Z,102650.06
2023-05-24T22:14:07.677Z,102644.88
2023-05-24T22:24:29.080Z,102664.75
2023-05-24T22:34:50.494Z,102662.16
2023-05-24T22:45:11.925Z,102658.75
2023-05-24T22:55:33.308Z,102657.03
2023-05-24T23:05:55.039Z,102666.59
2023-05-24T23:16:18.044Z,102679.63
2023-05-24T23:26:39.506Z,102665.88
2023-05-24T23:37:01.305Z,102664.16
2023-05-24T23:47:22.735Z,102672.84
2023-05-24T23:57:45.805Z,102677.25
